Time;durP1;ratioP1;P1;durP2;ratioP2;P2;SDS_P1;SDS_P2;PMS_P1;PMS_P2;Temp;Humidity;BMP_temperature;BMP_pressure;BME280_temperature;BME280_humidity;BME280_pressure;Samples;Min_cycle;Max_cycle;Signal;HPM_P1;HPM_P2
2023/10/22 00:00:01;;;;;;;;;;;;;;;18.01;48.89;98895.56;6178710;23;6838;-72
2023/10/22 00:02:27;;;;;;;;;;;;;;;18.01;48.91;98890.38;6174111;23;6842;-72
2023/10/22 00:04:52;;;;;;;;;;;;;;;18.03;48.30;98896.41;6176905;23;6762;-72
2023/10/22 00:07:18;;;;;;;;;;;;;;;18.04;48.77;98898.16;6175201;23;7152;-72
2023/10/22 00:09:44;;;;;;;;;;;;;;;18.05;49.00;98892.09;6178118;23;6968;-71
2023/10/22 00:12:11;;;;;;;;;;;;;;;18.04;48.81;98887.78;6175950;23;6917;-71
2023/10/22 00:14:37;;;;;;;;;;;;;;;18.03;48.53;98894.72;6178720;23;6771;-72
2023/10/22 00:17:03;;;;;;;;;;;;;;;18.02;48.86;98898.16;6175591;23;7135;-72
2023/10/22 00:19:29;;;;;;;;;;;;;;;18.03;49.05;98894.72;6176074;23;6762;-72
2023/10/22 00:21:55;;;;;;;;;;;;;;;18.04;48.91;98903.34;6151407;23;7078;-73
2023/10/22 00:24:20;;;;;;;;;;;;;;;18.03;48.94;98905.09;6177577;23;6822;-72
2023/10/22 00:26:47;;;;;;;;;;;;;;;18.06;49.03;98908.53;6176431;23;8063;-72
2023/10/22 00:29:12;;;;;;;;;;;;;;;18.06;49.65;98903.34;6178239;23;6775;-72
2023/10/22 00:31:38;;;;;;;;;;;;;;;18.08;49.47;98899.88;6175946;23;6754;-74
2023/10/22 00:34:04;;;;;;;;;;;;;;;18.09;49.31;98909.38;6176333;23;7116;-74
2023/10/22 00:36:29;;;;;;;;;;;;;;;18.11;49.61;98912.81;6150919;23;6952;-74
2023/10/22 00:38:55;;;;;;;;;;;;;;;18.12;49.06;98919.72;6175774;23;6767;-74
2023/10/22 00:41:21;;;;;;;;;;;;;;;18.11;49.27;98909.38;6152270;23;7221;-71
2023/10/22 00:43:47;;;;;;;;;;;;;;;18.12;49.43;98914.53;6177476;23;6972;-72
2023/10/22 00:46:20;;;;;;;;;;;;;;;18.12;49.02;98929.25;6151506;23;6826;-72
2023/10/22 00:48:47;;;;;;;;;;;;;;;18.11;49.24;98915.41;6152244;23;7229;-72
2023/10/22 00:51:14;;;;;;;;;;;;;;;18.10;49.46;98928.38;6151301;23;7240;-72
2023/10/22 00:53:44;;;;;;;;;;;;;;;18.10;49.21;98926.66;6176902;23;6866;-72
2023/10/22 00:56:12;;;;;;;;;;;;;;;18.10;49.73;98926.66;6176838;23;7027;-72
2023/10/22 00:58:40;;;;;;;;;;;;;;;18.10;49.92;98931.84;6149943;23;7048;-71
2023/10/22 01:01:08;;;;;;;;;;;;;;;18.11;49.32;98927.53;6175179;23;7177;-72
2023/10/22 01:03:38;;;;;;;;;;;;;;;18.11;49.59;98943.94;6151784;23;6961;-72
2023/10/22 01:06:05;;;;;;;;;;;;;;;18.11;49.95;98936.16;6176380;23;6779;-73
2023/10/22 01:08:37;;;;;;;;;;;;;;;18.10;49.76;98937.03;6152701;23;7135;-72
2023/10/22 01:11:10;;;;;;;;;;;;;;;18.10;49.81;98942.22;6179034;23;6847;-71
2023/10/22 01:13:38;;;;;;;;;;;;;;;18.10;49.91;98942.22;6177979;23;6774;-72
2023/10/22 01:16:06;;;;;;;;;;;;;;;18.09;49.91;98945.69;6176940;23;6938;-73
2023/10/22 01:18:32;;;;;;;;;;;;;;;18.09;50.32;98939.63;6178190;23;6783;-73
2023/10/22 01:20:58;;;;;;;;;;;;;;;18.08;49.97;98943.94;6177793;23;6966;-72
2023/10/22 01:23:24;;;;;;;;;;;;;;;18.08;49.82;98943.94;6152745;23;7288;-72
2023/10/22 01:25:50;;;;;;;;;;;;;;;18.09;49.91;98960.34;6180925;23;6767;-71
2023/10/22 01:28:16;;;;;;;;;;;;;;;18.07;49.87;98957.78;6177003;23;6980;-71
2023/10/22 01:30:42;;;;;;;;;;;;;;;18.06;50.23;98950.88;6154093;23;7047;-72
2023/10/22 01:33:08;;;;;;;;;;;;;;;18.06;50.14;98960.38;6175574;23;13254;-72
2023/10/22 01:35:34;;;;;;;;;;;;;;;18.04;50.39;98957.78;6152594;23;8006;-72
2023/10/22 01:37:59;;;;;;;;;;;;;;;18.02;50.35;98970.75;6175910;23;6778;-71
2023/10/22 01:40:25;;;;;;;;;;;;;;;17.95;50.46;98979.41;6177347;23;7040;-72
2023/10/22 01:42:51;;;;;;;;;;;;;;;17.82;50.99;98973.41;6177798;23;6762;-72
2023/10/22 01:45:18;;;;;;;;;;;;;;;17.68;50.75;98973.47;6179571;23;6908;-72
2023/10/22 01:47:43;;;;;;;;;;;;;;;17.51;50.93;98977.84;6176871;23;7104;-72
2023/10/22 01:50:09;;;;;;;;;;;;;;;17.33;51.75;98990.84;6178442;23;6775;-71
2023/10/22 01:52:35;;;;;;;;;;;;;;;17.17;52.22;98989.16;6178151;23;6969;-72
2023/10/22 01:55:00;;;;;;;;;;;;;;;17.01;52.43;98984.00;6178044;23;6770;-74
2023/10/22 01:57:26;;;;;;;;;;;;;;;16.91;53.05;98987.44;6151091;23;6923;-74
2023/10/22 01:59:52;;;;;;;;;;;;;;;16.82;53.88;99002.97;6175768;23;7011;-74
2023/10/22 02:02:17;;;;;;;;;;;;;;;16.72;53.78;99000.38;6151245;23;6968;-74
2023/10/22 02:04:43;;;;;;;;;;;;;;;16.68;53.78;98998.63;6151703;23;6936;-75
2023/10/22 02:07:09;;;;;;;;;;;;;;;16.62;54.23;98999.50;6176471;23;7013;-74
2023/10/22 02:09:35;;;;;;;;;;;;;;;16.58;54.45;99004.66;6178327;23;6767;-73
2023/10/22 02:12:01;;;;;;;;;;;;;;;16.54;54.54;99008.97;6176520;23;6750;-73
2023/10/22 02:14:26;;;;;;;;;;;;;;;16.49;54.46;99016.72;6176883;23;6904;-73
2023/10/22 02:16:52;;;;;;;;;;;;;;;16.45;55.19;99021.88;6180671;23;6834;-73
2023/10/22 02:19:18;;;;;;;;;;;;;;;16.37;54.87;99033.09;6181361;23;6972;-73
2023/10/22 02:21:45;;;;;;;;;;;;;;;16.33;55.55;99039.09;6184844;23;6842;-73
2023/10/22 02:24:11;;;;;;;;;;;;;;;16.29;55.73;99039.09;6180276;23;7331;-73
2023/10/22 02:26:36;;;;;;;;;;;;;;;16.21;56.12;99037.31;6154400;23;6950;-73
2023/10/22 02:29:03;;;;;;;;;;;;;;;16.17;56.14;99053.69;6151674;23;7009;-74
2023/10/22 02:31:28;;;;;;;;;;;;;;;16.13;56.63;99049.38;6177422;23;6782;-73
2023/10/22 02:36:34;;;;;;;;;;;;;;;16.07;56.83;99044.19;6204493;23;7874;-76
2023/10/22 02:39:00;;;;;;;;;;;;;;;16.02;57.15;99040.72;6204761;23;6774;-76
2023/10/22 02:41:28;;;;;;;;;;;;;;;16.00;57.46;99055.34;6181183;23;7181;-76
2023/10/22 02:46:26;;;;;;;;;;;;;;;15.94;57.44;99049.31;6146410;23;7038;-75
2023/10/22 02:48:52;;;;;;;;;;;;;;;15.93;58.33;99057.94;6122143;23;6835;-75
2023/10/22 02:51:17;;;;;;;;;;;;;;;15.92;58.30;99057.91;6122139;23;6930;-76
2023/10/22 02:53:43;;;;;;;;;;;;;;;15.92;58.29;99076.00;6122970;23;6758;-76
2023/10/22 02:56:09;;;;;;;;;;;;;;;15.89;58.71;99074.22;6122771;23;6763;-75
2023/10/22 02:58:38;;;;;;;;;;;;;;;15.89;58.39;99076.81;6124434;23;7011;-75
2023/10/22 03:01:11;;;;;;;;;;;;;;;15.90;58.73;99073.38;6122531;23;6774;-76
2023/10/22 03:03:38;;;;;;;;;;;;;;;15.93;58.99;99078.59;6123435;23;7142;-75
2023/10/22 03:06:10;;;;;;;;;;;;;;;15.96;59.05;99083.78;6145264;23;6843;-74
2023/10/22 03:08:39;;;;;;;;;;;;;;;16.02;58.97;99092.38;6127499;23;7341;-74
2023/10/22 03:11:05;;;;;;;;;;;;;;;16.04;58.77;99093.28;6174212;23;6761;-74
2023/10/22 03:13:32;;;;;;;;;;;;;;;16.08;58.93;99108.81;6175397;23;6841;-74
2023/10/22 03:16:08;;;;;;;;;;;;;;;16.09;59.06;99100.19;6176490;23;6751;-75
2023/10/22 03:18:33;;;;;;;;;;;;;;;16.13;59.25;99095.91;6176685;23;6909;-72
2023/10/22 03:20:59;;;;;;;;;;;;;;;16.14;59.34;99097.63;6151832;23;6905;-73
2023/10/22 03:23:25;;;;;;;;;;;;;;;16.18;58.95;99099.38;6150821;23;6911;-73
2023/10/22 03:25:50;;;;;;;;;;;;;;;16.19;59.41;99106.25;6149789;23;6750;-73
2023/10/22 03:28:16;;;;;;;;;;;;;;;16.22;59.47;99113.16;6174588;23;6755;-73
2023/10/22 03:30:42;;;;;;;;;;;;;;;16.26;58.97;99124.38;6161694;23;6912;-81
2023/10/22 03:33:07;;;;;;;;;;;;;;;16.28;59.43;99120.09;6118239;23;6959;-83
2023/10/22 03:35:35;;;;;;;;;;;;;;;16.29;59.53;99116.63;6070693;23;8344;-85
2023/10/22 03:38:02;;;;;;;;;;;;;;;16.30;59.46;99119.25;6094989;23;6790;-84
2023/10/22 03:40:37;;;;;;;;;;;;;;;16.32;59.01;99121.81;6119831;23;6961;-83
2023/10/22 03:43:03;;;;;;;;;;;;;;;16.36;59.53;99121.81;6095959;23;6784;-84
2023/10/22 03:45:28;;;;;;;;;;;;;;;16.35;59.07;99127.88;6096065;23;8289;-85
2023/10/22 03:48:00;;;;;;;;;;;;;;;16.40;59.34;99130.47;6071588;23;8353;-84
2023/10/22 03:50:26;;;;;;;;;;;;;;;16.40;58.96;99130.47;6095775;23;7021;-84
2023/10/22 03:52:51;;;;;;;;;;;;;;;16.42;59.44;99135.66;6096009;23;7314;-84
2023/10/22 03:55:17;;;;;;;;;;;;;;;16.41;59.05;99137.34;6095568;23;6774;-83
2023/10/22 03:57:43;;;;;;;;;;;;;;;16.41;58.75;99139.09;6072676;23;7423;-83
2023/10/22 04:00:10;;;;;;;;;;;;;;;16.38;59.23;99148.59;6094910;23;6854;-84
2023/10/22 04:02:38;;;;;;;;;;;;;;;16.37;59.47;99153.72;6071196;23;8410;-84
2023/10/22 04:05:05;;;;;;;;;;;;;;;16.36;59.39;99165.78;6096121;23;6803;-84
2023/10/22 04:07:31;;;;;;;;;;;;;;;16.37;60.15;99169.25;6071329;23;6858;-84
2023/10/22 04:09:57;;;;;;;;;;;;;;;16.37;59.96;99171.84;6095544;23;6736;-84
2023/10/22 04:12:24;;;;;;;;;;;;;;;16.35;59.70;99183.91;6071054;23;8558;-84
2023/10/22 04:14:52;;;;;;;;;;;;;;;16.34;59.68;99184.75;6071927;23;8350;-84
2023/10/22 04:17:18;;;;;;;;;;;;;;;16.34;59.74;99192.50;6071802;23;7198;-84
2023/10/22 04:19:46;;;;;;;;;;;;;;;16.31;59.88;99198.53;6096724;23;8376;-86
2023/10/22 04:22:11;;;;;;;;;;;;;;;16.31;60.02;99223.50;6096529;23;6937;-85
2023/10/22 04:24:37;;;;;;;;;;;;;;;16.31;60.04;99239.00;6097327;23;6759;-84
2023/10/22 04:27:04;;;;;;;;;;;;;;;16.29;59.89;99245.91;6073125;23;8517;-85
2023/10/22 04:29:30;;;;;;;;;;;;;;;16.16;59.62;99250.13;6072059;23;6804;-85
2023/10/22 04:31:56;;;;;;;;;;;;;;;16.00;59.45;99244.88;6081779;23;7166;-85
2023/10/22 04:34:21;;;;;;;;;;;;;;;15.88;59.20;99252.47;6126094;23;8389;-85
2023/10/22 04:36:47;;;;;;;;;;;;;;;15.74;58.89;99249.78;6148629;23;6704;-85
2023/10/22 04:39:15;;;;;;;;;;;;;;;15.55;59.42;99244.47;6149354;23;6912;-84
2023/10/22 04:41:53;;;;;;;;;;;;;;;15.39;59.15;99244.31;6125728;23;8351;-85
2023/10/22 04:44:19;;;;;;;;;;;;;;;15.27;59.00;99244.19;6150105;23;8324;-84
2023/10/22 04:46:45;;;;;;;;;;;;;;;15.16;59.27;99232.88;6148503;23;7133;-84
2023/10/22 04:49:16;;;;;;;;;;;;;;;15.09;59.25;99231.94;6126759;23;6986;-84
2023/10/22 04:51:43;;;;;;;;;;;;;;;14.98;59.69;99232.69;6129932;23;7143;-85
2023/10/22 04:54:09;;;;;;;;;;;;;;;14.90;59.94;99236.06;6129724;23;7081;-86
2023/10/22 04:56:40;;;;;;;;;;;;;;;14.84;60.14;99242.84;6127910;23;8416;-85
2023/10/22 04:59:05;;;;;;;;;;;;;;;14.80;60.56;99250.53;6167674;23;8672;-83
2023/10/22 05:01:37;;;;;;;;;;;;;;;14.76;60.39;99246.19;6153072;23;6911;-90
2023/10/22 05:04:06;;;;;;;;;;;;;;;14.79;60.42;99244.53;6126429;23;6797;-83
2023/10/22 05:06:40;;;;;;;;;;;;;;;14.85;60.54;99259.22;6158806;23;7099;-84
2023/10/22 05:09:06;;;;;;;;;;;;;;;14.91;60.48;99263.56;6128932;23;6817;-84
2023/10/22 05:11:32;;;;;;;;;;;;;;;14.95;60.61;99261.06;6174335;23;6753;-84
2023/10/22 05:13:58;;;;;;;;;;;;;;;15.02;60.04;99267.16;6146994;23;7069;-85
2023/10/22 05:16:28;;;;;;;;;;;;;;;15.07;60.21;99267.19;6144493;23;7136;-88
2023/10/22 05:18:54;;;;;;;;;;;;;;;15.10;59.72;99281.00;6120967;23;8522;-84
2023/10/22 05:21:20;;;;;;;;;;;;;;;15.13;59.93;99286.19;6167469;23;6829;-85
2023/10/22 05:23:46;;;;;;;;;;;;;;;15.17;59.19;99292.25;6148321;23;7266;-84
2023/10/22 05:26:15;;;;;;;;;;;;;;;15.20;59.48;99294.88;6147602;23;6758;-85
2023/10/22 05:28:41;;;;;;;;;;;;;;;15.22;59.22;99297.47;6144491;23;8429;-85
2023/10/22 05:31:18;;;;;;;;;;;;;;;15.20;58.82;99287.13;6119225;23;7233;-85
2023/10/22 05:33:45;;;;;;;;;;;;;;;15.22;59.19;99300.06;6144234;23;7153;-84
2023/10/22 05:36:21;;;;;;;;;;;;;;;15.13;59.13;99296.50;6143412;23;7264;-85
2023/10/22 05:38:49;;;;;;;;;;;;;;;15.16;58.99;99311.19;6144640;23;8425;-84
2023/10/22 05:41:24;;;;;;;;;;;;;;;15.14;58.67;99313.72;6138406;23;6966;-86
2023/10/22 05:43:59;;;;;;;;;;;;;;;15.14;59.33;99320.63;6170881;23;6947;-87
2023/10/22 05:46:34;;;;;;;;;;;;;;;15.15;58.93;99314.59;6147471;23;7174;-86
2023/10/22 05:49:03;;;;;;;;;;;;;;;15.17;58.78;99317.22;6123243;23;7068;-85
2023/10/22 05:51:35;;;;;;;;;;;;;;;15.19;59.00;99320.69;6126096;23;6997;-85
2023/10/22 05:54:07;;;;;;;;;;;;;;;15.20;59.11;99327.56;6122880;23;8369;-85
2023/10/22 05:56:34;;;;;;;;;;;;;;;15.17;59.01;99324.97;6126784;23;7614;-86
2023/10/22 05:59:08;;;;;;;;;;;;;;;15.23;58.97;99337.91;6125724;23;6888;-86
2023/10/22 06:01:38;;;;;;;;;;;;;;;15.27;59.03;99343.13;6114448;23;6912;-85
2023/10/22 06:04:08;;;;;;;;;;;;;;;15.29;58.83;99348.31;6129848;23;7130;-87
2023/10/22 06:06:35;;;;;;;;;;;;;;;15.31;59.02;99351.78;6124928;23;6752;-85
2023/10/22 06:09:01;;;;;;;;;;;;;;;15.35;59.18;99343.22;6128629;23;8560;-88
2023/10/22 06:11:26;;;;;;;;;;;;;;;15.36;59.08;99357.88;6176688;23;8294;-86
2023/10/22 06:13:56;;;;;;;;;;;;;;;15.38;59.46;99357.88;6126120;23;8350;-87
2023/10/22 06:16:25;;;;;;;;;;;;;;;15.38;59.20;99356.19;6151003;23;8462;-86
2023/10/22 06:18:51;;;;;;;;;;;;;;;15.39;58.94;99357.91;6150261;23;8304;-86
2023/10/22 06:21:20;;;;;;;;;;;;;;;15.41;59.16;99363.94;6125485;23;7245;-85
2023/10/22 06:23:49;;;;;;;;;;;;;;;15.44;59.02;99359.66;6126336;23;8508;-85
2023/10/22 06:26:23;;;;;;;;;;;;;;;15.46;59.07;99370.91;6125581;23;7026;-86
2023/10/22 06:28:51;;;;;;;;;;;;;;;15.44;59.87;99373.47;6150962;23;6779;-87
2023/10/22 06:31:19;;;;;;;;;;;;;;;15.48;59.59;99380.38;6149062;23;8527;-86
2023/10/22 06:33:45;;;;;;;;;;;;;;;15.47;59.35;99381.22;6175698;23;8498;-85
2023/10/22 06:36:13;;;;;;;;;;;;;;;15.51;59.24;99384.72;6101498;23;6926;-86
2023/10/22 06:38:39;;;;;;;;;;;;;;;15.52;58.91;99396.78;6127794;23;6976;-86
2023/10/22 06:41:11;;;;;;;;;;;;;;;15.51;59.49;99390.75;6137674;23;6920;-88
2023/10/22 06:43:37;;;;;;;;;;;;;;;15.51;59.60;99395.03;6156733;23;7310;-87
2023/10/22 06:46:02;;;;;;;;;;;;;;;15.55;59.64;99402.84;6155448;23;7529;-86
2023/10/22 06:48:30;;;;;;;;;;;;;;;15.61;59.48;99422.72;6180284;23;6925;-86
2023/10/22 06:50:58;;;;;;;;;;;;;;;15.61;59.94;99421.88;6155053;23;7395;-86
2023/10/22 06:53:24;;;;;;;;;;;;;;;15.65;59.77;99429.66;6179387;23;6945;-86
2023/10/22 06:56:02;;;;;;;;;;;;;;;15.65;59.47;99432.25;6155695;23;6911;-86
2023/10/22 06:58:28;;;;;;;;;;;;;;;15.67;59.63;99427.97;6155482;23;7185;-86
2023/10/22 07:01:06;;;;;;;;;;;;;;;15.68;59.60;99426.22;6153983;23;8582;-85
2023/10/22 07:03:34;;;;;;;;;;;;;;;15.69;59.55;99433.13;6155184;23;8621;-85
2023/10/22 07:06:00;;;;;;;;;;;;;;;15.73;59.60;99436.59;6153495;23;6772;-86
2023/10/22 07:08:28;;;;;;;;;;;;;;;15.76;59.73;99442.69;6155082;23;7805;-86
2023/10/22 07:11:03;;;;;;;;;;;;;;;15.79;59.74;99447.03;6155827;23;7187;-86
2023/10/22 07:13:29;;;;;;;;;;;;;;;15.81;59.78;99458.25;6178495;23;7154;-86
2023/10/22 07:15:58;;;;;;;;;;;;;;;15.86;59.90;99466.03;6154622;23;6726;-88
2023/10/22 07:18:24;;;;;;;;;;;;;;;15.87;59.31;99458.31;6154999;23;7084;-86
2023/10/22 07:20:50;;;;;;;;;;;;;;;15.83;59.75;99460.00;6155536;23;6905;-85
2023/10/22 07:23:19;;;;;;;;;;;;;;;15.81;59.69;99458.25;6174048;23;7298;-85
2023/10/22 07:25:46;;;;;;;;;;;;;;;15.76;59.97;99457.34;6152852;23;8408;-85
2023/10/22 07:28:15;;;;;;;;;;;;;;;15.77;60.16;99467.66;6155257;23;8344;-85
2023/10/22 07:30:53;;;;;;;;;;;;;;;15.77;60.75;99465.06;6176745;23;7082;-85
2023/10/22 07:33:19;;;;;;;;;;;;;;;15.80;60.21;99472.00;6153584;23;8450;-85
2023/10/22 07:35:56;;;;;;;;;;;;;;;15.86;60.23;99474.69;6152161;23;7159;-85
2023/10/22 07:38:24;;;;;;;;;;;;;;;15.92;60.53;99485.09;6152214;23;8817;-85
2023/10/22 07:40:55;;;;;;;;;;;;;;;16.00;60.58;99486.91;6153846;23;8448;-85
2023/10/22 07:43:24;;;;;;;;;;;;;;;16.06;60.41;99492.16;6178816;23;7215;-85
2023/10/22 07:45:50;;;;;;;;;;;;;;;16.12;60.31;99496.53;6153902;23;7045;-85
2023/10/22 07:48:15;;;;;;;;;;;;;;;16.19;60.49;99493.16;6150090;23;7211;-85
2023/10/22 07:50:52;;;;;;;;;;;;;;;16.23;60.47;99488.03;6153497;23;7141;-85
2023/10/22 07:53:18;;;;;;;;;;;;;;;16.35;60.66;99489.84;6148272;23;7229;-75
2023/10/22 07:55:45;;;;;;;;;;;;;;;16.42;60.70;99503.72;6144152;23;7127;-75
2023/10/22 07:58:11;;;;;;;;;;;;;;;16.51;60.93;99501.22;6171702;23;6771;-75
2023/10/22 08:00:37;;;;;;;;;;;;;;;16.59;60.58;99508.16;6168236;23;6957;-75
2023/10/22 08:03:03;;;;;;;;;;;;;;;16.65;60.82;99493.56;6149188;23;6756;-75
2023/10/22 08:05:30;;;;;;;;;;;;;;;16.73;60.54;99506.59;6151888;23;6762;-75
2023/10/22 08:07:55;;;;;;;;;;;;;;;16.84;60.97;99509.25;6146725;23;6771;-75
2023/10/22 08:10:21;;;;;;;;;;;;;;;16.94;60.62;99513.63;6149827;23;6762;-76
2023/10/22 08:12:46;;;;;;;;;;;;;;;17.04;60.71;99526.69;6149443;23;6759;-76
2023/10/22 08:15:12;;;;;;;;;;;;;;;17.12;59.79;99521.59;6147717;23;7264;-75
2023/10/22 08:17:38;;;;;;;;;;;;;;;17.17;59.95;99525.06;6150210;23;6823;-75
2023/10/22 08:20:04;;;;;;;;;;;;;;;17.26;60.35;99538.06;6151170;23;6766;-76
2023/10/22 08:22:30;;;;;;;;;;;;;;;17.35;60.33;99534.69;6150951;23;6771;-76
2023/10/22 08:24:55;;;;;;;;;;;;;;;17.44;60.41;99539.94;6149888;23;7299;-76
2023/10/22 08:27:21;;;;;;;;;;;;;;;17.54;60.15;99539.97;6125316;23;6912;-75
2023/10/22 08:29:47;;;;;;;;;;;;;;;17.62;60.12;99538.28;6148826;23;6934;-75
2023/10/22 08:32:12;;;;;;;;;;;;;;;17.71;59.81;99534.88;6151692;23;6763;-75
2023/10/22 08:34:38;;;;;;;;;;;;;;;17.81;60.17;99541.84;6151708;23;6822;-76
2023/10/22 08:37:04;;;;;;;;;;;;;;;17.94;59.89;99541.88;6173766;23;6920;-76
2023/10/22 08:39:30;;;;;;;;;;;;;;;18.07;60.09;99554.09;6150494;23;6870;-76
2023/10/22 08:42:09;;;;;;;;;;;;;;;18.16;59.66;99551.53;6122833;23;7265;-76
2023/10/22 08:44:46;;;;;;;;;;;;;;;18.20;59.15;99551.53;6150138;23;6778;-76
2023/10/22 08:47:12;;;;;;;;;;;;;;;18.28;59.43;99563.63;6150648;23;7120;-76
2023/10/22 08:49:41;;;;;;;;;;;;;;;18.35;58.45;99563.66;6153740;23;7705;-75
2023/10/22 08:52:08;;;;;;;;;;;;;;;18.40;58.54;99562.81;6125568;23;6967;-75
2023/10/22 08:54:35;;;;;;;;;;;;;;;18.47;58.55;99566.28;6176443;23;6978;-76
2023/10/22 08:57:02;;;;;;;;;;;;;;;18.49;58.38;99561.94;6202039;23;6911;-73
2023/10/22 08:59:29;;;;;;;;;;;;;;;18.46;58.29;99562.84;6200729;23;6767;-74
2023/10/22 09:01:56;;;;;;;;;;;;;;;18.47;58.32;99574.06;6199951;23;7301;-73
2023/10/22 09:04:22;;;;;;;;;;;;;;;18.44;57.73;99582.69;6200483;23;6838;-73
2023/10/22 09:06:53;;;;;;;;;;;;;;;18.39;57.64;99574.06;6176437;23;6969;-73
2023/10/22 09:09:48;;;;;;;;;;;;;;;18.30;57.29;99580.09;6177782;23;6778;-73
2023/10/22 09:12:14;;;;;;;;;;;;;;;18.24;57.10;99577.47;6156765;23;7107;-73
2023/10/22 09:14:44;;;;;;;;;;;;;;;18.20;57.84;99583.50;6199059;23;6763;-74
2023/10/22 09:17:19;;;;;;;;;;;;;;;18.17;57.50;99580.91;6175915;23;6779;-73
2023/10/22 09:19:47;;;;;;;;;;;;;;;18.13;57.30;99580.00;6198484;23;6778;-74
2023/10/22 09:22:26;;;;;;;;;;;;;;;18.11;57.63;99594.72;6176048;23;7119;-74
2023/10/22 09:24:57;;;;;;;;;;;;;;;18.10;57.15;99595.56;6197598;23;6767;-73
2023/10/22 09:27:30;;;;;;;;;;;;;;;18.05;56.96;99594.66;6195948;23;6846;-72
2023/10/22 09:30:00;;;;;;;;;;;;;;;18.03;57.12;99605.06;6151026;23;7022;-72
2023/10/22 09:32:26;;;;;;;;;;;;;;;18.01;57.16;99606.75;6122908;23;7129;-72
2023/10/22 09:34:52;;;;;;;;;;;;;;;17.99;57.62;99621.41;6145632;23;6898;-72
2023/10/22 09:37:18;;;;;;;;;;;;;;;18.02;57.26;99628.34;6145763;23;6762;-72
2023/10/22 09:39:45;;;;;;;;;;;;;;;17.99;57.65;99633.50;6169934;23;7231;-73
2023/10/22 09:42:17;;;;;;;;;;;;;;;17.90;57.19;99632.59;6120980;23;6961;-72
2023/10/22 09:44:44;;;;;;;;;;;;;;;17.77;57.13;99628.22;6117650;23;6961;-72
2023/10/22 09:47:21;;;;;;;;;;;;;;;17.65;57.64;99622.94;6147416;23;6783;-72
2023/10/22 09:50:07;;;;;;;;;;;;;;;17.57;58.37;99626.34;6168967;23;6960;-72
2023/10/22 09:52:38;;;;;;;;;;;;;;;17.52;58.56;99633.22;6143930;23;6778;-73
2023/10/22 09:55:08;;;;;;;;;;;;;;;17.51;58.62;99638.38;6095897;23;7157;-73
2023/10/22 09:57:35;;;;;;;;;;;;;;;17.48;58.62;99632.31;6120314;23;6964;-72
2023/10/22 10:00:12;;;;;;;;;;;;;;;17.52;58.66;99633.22;6120179;23;6974;-72
2023/10/22 10:02:43;;;;;;;;;;;;;;;17.60;59.67;99635.84;6123900;23;6917;-72
2023/10/22 10:05:12;;;;;;;;;;;;;;;17.70;59.28;99631.63;6120126;23;7160;-72
2023/10/22 10:07:39;;;;;;;;;;;;;;;17.85;59.91;99636.88;6124943;23;7053;-71
2023/10/22 10:10:07;;;;;;;;;;;;;;;18.04;59.46;99647.38;6122917;23;6782;-72
2023/10/22 10:12:40;;;;;;;;;;;;;;;18.22;59.29;99645.75;6120978;23;6982;-72
2023/10/22 10:15:06;;;;;;;;;;;;;;;18.35;58.96;99647.56;6125155;23;6919;-72
2023/10/22 10:17:52;;;;;;;;;;;;;;;18.55;58.74;99657.13;6121367;23;6928;-73
2023/10/22 10:20:30;;;;;;;;;;;;;;;18.66;58.49;99652.84;6123529;23;6775;-72
2023/10/22 10:23:09;;;;;;;;;;;;;;;18.80;58.60;99654.59;6124285;23;6783;-72
2023/10/22 10:25:39;;;;;;;;;;;;;;;18.94;58.87;99647.72;6124107;23;6779;-71
2023/10/22 10:28:10;;;;;;;;;;;;;;;19.22;58.89;99659.88;6123971;23;6774;-73
2023/10/22 10:30:38;;;;;;;;;;;;;;;19.50;58.35;99652.94;6122313;23;6783;-72
2023/10/22 10:33:04;;;;;;;;;;;;;;;19.75;58.48;99652.91;6100258;23;7131;-72
2023/10/22 10:35:46;;;;;;;;;;;;;;;19.99;57.69;99659.00;6098104;23;7037;-72
2023/10/22 10:38:14;;;;;;;;;;;;;;;20.22;57.47;99652.84;6118705;23;6771;-73
2023/10/22 10:40:43;;;;;;;;;;;;;;;20.46;56.92;99661.41;6142270;23;7216;-72
2023/10/22 10:43:08;;;;;;;;;;;;;;;20.72;56.54;99670.81;6121200;23;6795;-72
2023/10/22 10:45:34;;;;;;;;;;;;;;;20.96;56.46;99677.66;6121433;23;7112;-73
2023/10/22 10:48:00;;;;;;;;;;;;;;;21.18;55.43;99667.09;6119959;23;6766;-72
2023/10/22 10:50:26;;;;;;;;;;;;;;;21.35;55.24;99664.38;6118057;23;6763;-73
2023/10/22 10:52:52;;;;;;;;;;;;;;;21.43;54.18;99672.97;6117523;23;7088;-72
2023/10/22 10:55:20;;;;;;;;;;;;;;;21.50;54.05;99673.81;6163556;23;6933;-73
2023/10/22 10:57:50;;;;;;;;;;;;;;;21.58;53.88;99676.31;6166200;23;6951;-73
2023/10/22 11:00:31;;;;;;;;;;;;;;;21.53;53.19;99680.69;6142240;23;6975;-73
2023/10/22 11:03:04;;;;;;;;;;;;;;;21.32;52.71;99680.00;6141751;23;6990;-72
2023/10/22 11:05:42;;;;;;;;;;;;;;;21.11;52.65;99678.44;6171229;23;7013;-73
2023/10/22 11:08:20;;;;;;;;;;;;;;;20.88;52.65;99674.22;6143986;23;6921;-72
2023/10/22 11:10:46;;;;;;;;;;;;;;;20.67;53.06;99683.88;6144890;23;6775;-73
2023/10/22 11:13:12;;;;;;;;;;;;;;;20.58;53.21;99686.50;6145634;23;6990;-72
2023/10/22 11:15:40;;;;;;;;;;;;;;;20.59;53.62;99683.91;6149051;23;6806;-72
2023/10/22 11:18:11;;;;;;;;;;;;;;;20.67;54.00;99691.69;6171653;23;6779;-73
2023/10/22 11:20:38;;;;;;;;;;;;;;;20.73;53.80;99694.25;6146581;23;6964;-72
2023/10/22 11:23:19;;;;;;;;;;;;;;;20.82;54.15;99690.75;6174426;23;6957;-73
2023/10/22 11:25:46;;;;;;;;;;;;;;;21.04;53.72;99693.22;6148776;23;6844;-73
2023/10/22 11:28:13;;;;;;;;;;;;;;;21.18;53.15;99691.41;6113543;23;7039;-73
2023/10/22 11:30:41;;;;;;;;;;;;;;;21.29;53.07;99693.06;6116969;23;7196;-73
2023/10/22 11:33:09;;;;;;;;;;;;;;;21.40;52.73;99696.47;6116675;23;6949;-73
2023/10/22 11:35:37;;;;;;;;;;;;;;;21.50;52.70;99692.91;6147036;23;7181;-72
2023/10/22 11:38:04;;;;;;;;;;;;;;;21.74;52.89;99688.38;6124725;23;6787;-73
2023/10/22 11:40:36;;;;;;;;;;;;;;;21.94;52.47;99691.66;6067295;23;6842;-72
2023/10/22 11:43:13;;;;;;;;;;;;;;;22.18;51.77;99696.63;6090649;23;7021;-73
2023/10/22 11:45:53;;;;;;;;;;;;;;;22.28;51.22;99694.75;6090047;23;6906;-72
2023/10/22 11:48:23;;;;;;;;;;;;;;;22.24;50.48;99695.69;6089393;23;6767;-73
2023/10/22 11:50:58;;;;;;;;;;;;;;;22.12;50.91;99696.69;6089496;23;6775;-72
2023/10/22 11:53:39;;;;;;;;;;;;;;;22.04;50.69;99699.38;6091608;23;6790;-74
2023/10/22 11:56:05;;;;;;;;;;;;;;;21.93;50.48;99703.88;6067024;23;7085;-72
2023/10/22 11:58:30;;;;;;;;;;;;;;;21.78;50.63;99697.91;6112551;23;6766;-72
2023/10/22 12:00:56;;;;;;;;;;;;;;;21.62;51.03;99699.75;6086338;23;6962;-73
2023/10/22 12:03:23;;;;;;;;;;;;;;;21.61;51.30;99712.78;6106592;23;7042;-73
2023/10/22 12:05:48;;;;;;;;;;;;;;;21.62;51.17;99709.31;6111283;23;6969;-72
2023/10/22 12:08:14;;;;;;;;;;;;;;;21.57;50.83;99711.09;6087604;23;7055;-72
2023/10/22 12:10:41;;;;;;;;;;;;;;;21.41;50.72;99721.63;6087400;23;6962;-74
2023/10/22 12:13:06;;;;;;;;;;;;;;;21.13;50.78;99723.59;6090294;23;7484;-73
2023/10/22 12:15:33;;;;;;;;;;;;;;;20.69;51.08;99731.59;6088220;23;6758;-71
2023/10/22 12:17:59;;;;;;;;;;;;;;;20.25;51.68;99728.25;6089441;23;6955;-72
2023/10/22 12:20:25;;;;;;;;;;;;;;;19.86;52.45;99738.72;6089946;23;6808;-72
2023/10/22 12:22:51;;;;;;;;;;;;;;;19.47;53.24;99738.69;6089533;23;6759;-72
2023/10/22 12:25:16;;;;;;;;;;;;;;;19.18;54.60;99749.91;6089885;23;6843;-73
2023/10/22 12:27:42;;;;;;;;;;;;;;;18.96;54.51;99760.22;6087023;23;6992;-73
2023/10/22 12:30:08;;;;;;;;;;;;;;;18.78;55.25;99747.19;6086496;23;6779;-73
2023/10/22 12:32:34;;;;;;;;;;;;;;;18.66;55.97;99753.19;6084087;23;7045;-74
2023/10/22 12:35:00;;;;;;;;;;;;;;;18.64;56.84;99748.00;6085058;23;6827;-73
2023/10/22 12:37:26;;;;;;;;;;;;;;;18.64;56.83;99753.19;6089104;23;7930;-74
2023/10/22 12:39:52;;;;;;;;;;;;;;;18.68;57.73;99749.72;6144854;23;6837;-73
2023/10/22 12:42:18;;;;;;;;;;;;;;;18.69;57.59;99751.47;6120104;23;6775;-74
2023/10/22 12:44:44;;;;;;;;;;;;;;;18.73;57.09;99755.81;6145085;23;6762;-74
2023/10/22 12:47:14;;;;;;;;;;;;;;;18.80;57.90;99751.53;6144763;23;6775;-75
2023/10/22 12:49:44;;;;;;;;;;;;;;;18.93;58.01;99762.81;6119547;23;6962;-74
2023/10/22 12:52:13;;;;;;;;;;;;;;;19.01;58.09;99757.69;6121162;23;7126;-73
2023/10/22 12:54:42;;;;;;;;;;;;;;;19.07;58.00;99762.88;6138054;23;7364;-72
2023/10/22 12:57:10;;;;;;;;;;;;;;;19.14;57.75;99762.03;6145054;23;8083;-72
2023/10/22 12:59:36;;;;;;;;;;;;;;;19.19;58.02;99762.03;6145429;23;6986;-72
2023/10/22 13:02:03;;;;;;;;;;;;;;;19.24;57.87;99759.44;6120531;23;6738;-72
2023/10/22 13:04:29;;;;;;;;;;;;;;;19.25;57.96;99764.66;6147728;23;6763;-72
2023/10/22 13:06:55;;;;;;;;;;;;;;;19.27;58.36;99764.69;6145900;23;7281;-72